createdAt,value
2022-10-23T00:04:44.859Z,17.25
2022-10-23T00:09:47.485Z,17.24
2022-10-23T00:14:50.101Z,17.22
2022-10-23T00:19:54.148Z,17.20
2022-10-23T00:24:56.759Z,17.20
2022-10-23T00:29:59.391Z,17.16
2022-10-23T00:35:03.495Z,17.16
2022-10-23T00:40:07.452Z,17.16
2022-10-23T00:45:22.940Z,17.15
2022-10-23T00:50:28.568Z,17.12
2022-10-23T00:55:33.796Z,17.11
2022-10-23T01:00:44.599Z,17.10
2022-10-23T01:05:50.959Z,17.09
2022-10-23T01:10:57.320Z,17.10
2022-10-23T01:16:08.522Z,17.07
2022-10-23T01:21:15.247Z,17.06
2022-10-23T01:26:30.440Z,17.04
2022-10-23T01:31:37.824Z,17.05
2022-10-23T01:36:43.087Z,17.03
2022-10-23T01:41:48.230Z,17.01
2022-10-23T01:46:58.975Z,16.97
2022-10-23T01:52:08.123Z,17.00
2022-10-23T01:57:14.245Z,16.99
2022-10-23T02:02:19.107Z,16.97
2022-10-23T02:07:22.516Z,16.98
2022-10-23T02:12:31.414Z,16.97
2022-10-23T02:17:44.888Z,16.98
2022-10-23T02:22:55.376Z,16.97
2022-10-23T02:27:59.497Z,16.97
2022-10-23T02:33:11.769Z,16.98
2022-10-23T02:38:36.215Z,16.97
2022-10-23T02:43:43.051Z,16.98
2022-10-23T02:48:54.914Z,16.98
2022-10-23T02:54:02.259Z,16.99
2022-10-23T02:59:12.085Z,16.98
2022-10-23T03:04:17.631Z,16.97
2022-10-23T03:09:20.389Z,16.97
2022-10-23T03:14:23.067Z,16.97
2022-10-23T03:19:27.768Z,16.97
2022-10-23T03:24:32.249Z,16.97
2022-10-23T03:29:34.964Z,16.95
2022-10-23T03:34:39.086Z,16.97
2022-10-23T03:39:45.175Z,16.94
2022-10-23T03:44:47.918Z,16.96
2022-10-23T03:49:51.942Z,16.98
2022-10-23T03:54:54.678Z,16.97
2022-10-23T03:59:57.414Z,16.96
2022-10-23T04:05:07.714Z,16.93
2022-10-23T04:10:11.016Z,16.93
2022-10-23T04:15:13.725Z,16.96
2022-10-23T04:20:20.754Z,16.97
2022-10-23T04:25:23.568Z,16.98
2022-10-23T04:30:26.310Z,16.98
2022-10-23T04:35:30.367Z,16.97
2022-10-23T04:40:33.069Z,16.96
2022-10-23T04:45:35.862Z,16.95
2022-10-23T04:50:39.905Z,16.97
2022-10-23T04:56:03.719Z,16.95
2022-10-23T05:01:13.296Z,16.94
2022-10-23T05:06:17.460Z,16.93
2022-10-23T05:11:40.451Z,16.94
2022-10-23T05:16:48.195Z,16.95
2022-10-23T05:21:55.750Z,16.95
2022-10-23T05:27:02.123Z,16.93
2022-10-23T05:32:08.035Z,16.91
2022-10-23T05:37:14.987Z,16.90
2022-10-23T05:42:18.263Z,16.89
2022-10-23T05:47:21.943Z,16.92
2022-10-23T05:52:49.027Z,16.90
2022-10-23T05:58:11.966Z,16.88
2022-10-23T06:03:35.055Z,16.89
2022-10-23T06:08:41.759Z,16.89
2022-10-23T06:13:45.184Z,16.92
2022-10-23T06:18:57.400Z,16.86
2022-10-23T06:24:01.531Z,16.87
2022-10-23T06:29:30.759Z,16.90
2022-10-23T06:34:33.575Z,16.93
2022-10-23T06:39:40.356Z,16.92
2022-10-23T06:44:48.878Z,16.97
2022-10-23T06:49:59.890Z,16.97
2022-10-23T06:55:04.279Z,16.98
2022-10-23T07:00:12.225Z,17.00
2022-10-23T07:05:24.383Z,17.03
2022-10-23T07:10:28.754Z,17.03
2022-10-23T07:15:33.703Z,17.04
2022-10-23T07:20:36.778Z,17.06
2022-10-23T07:25:41.267Z,17.03
2022-10-23T07:30:44.963Z,17.06
2022-10-23T07:35:49.954Z,17.11
2022-10-23T07:41:02.314Z,17.28
2022-10-23T07:46:05.441Z,17.44
2022-10-23T17:31:46.336Z,18.27
2022-10-23T17:36:51.563Z,18.25
2022-10-23T17:41:54.815Z,18.24
2022-10-23T17:46:58.834Z,18.23
2022-10-23T17:52:01.810Z,18.22
2022-10-23T17:57:04.438Z,18.26
2022-10-23T18:02:08.543Z,18.26
2022-10-23T18:07:11.569Z,18.26
2022-10-23T18:12:14.167Z,18.24
2022-10-23T18:17:18.139Z,18.23
2022-10-23T18:22:20.831Z,18.21
2022-10-23T18:27:23.580Z,18.21
2022-10-23T18:32:27.837Z,18.17
2022-10-23T18:37:33.885Z,18.15
2022-10-23T18:42:38.573Z,18.17
2022-10-23T18:47:42.854Z,18.15
2022-10-23T18:52:45.995Z,18.15
2022-10-23T18:57:48.619Z,18.13
2022-10-23T19:02:52.830Z,18.12
2022-10-23T19:07:55.663Z,18.09
2022-10-23T19:12:58.265Z,18.06
2022-10-23T19:18:02.650Z,18.06
2022-10-23T19:23:06.456Z,18.07
2022-10-23T19:28:10.096Z,18.05
2022-10-23T19:33:14.036Z,18.05
2022-10-23T19:38:16.686Z,18.04
2022-10-23T19:43:19.356Z,18.05
2022-10-23T19:48:23.281Z,18.02
2022-10-23T19:53:26.068Z,18.02
2022-10-23T19:58:28.688Z,18.02
2022-10-23T20:03:32.654Z,17.99
2022-10-23T20:08:35.360Z,17.98
2022-10-23T20:13:38.001Z,17.99
2022-10-23T20:18:41.925Z,17.97
2022-10-23T20:23:45.212Z,17.96
2022-10-23T20:28:48.444Z,17.96
2022-10-23T20:33:52.946Z,17.92
2022-10-23T20:38:56.619Z,17.94
2022-10-23T20:43:59.263Z,17.98
2022-10-23T20:49:03.288Z,17.93
2022-10-23T20:54:06.187Z,17.98
2022-10-23T20:59:11.796Z,17.98
2022-10-23T21:04:15.977Z,18.02
2022-10-23T21:09:18.594Z,18.01
2022-10-23T21:14:21.168Z,18.02
2022-10-23T21:19:25.118Z,18.03
2022-10-23T21:24:27.835Z,18.03
2022-10-23T21:29:30.556Z,18.02
2022-10-23T21:34:34.716Z,18.00
2022-10-23T21:39:37.360Z,18.00
2022-10-23T21:44:40.157Z,17.99
2022-10-23T21:49:44.349Z,17.97
2022-10-23T21:54:46.916Z,17.95
2022-10-23T21:59:49.726Z,17.94
2022-10-23T22:04:54.252Z,17.96
2022-10-23T22:09:56.870Z,17.93
2022-10-23T22:14:59.473Z,17.92
2022-10-23T22:20:03.395Z,17.91
2022-10-23T22:25:07.027Z,17.88
2022-10-23T22:30:10.267Z,17.86
2022-10-23T22:35:14.262Z,17.86
2022-10-23T22:40:16.975Z,17.87
2022-10-23T22:45:19.584Z,17.85
2022-10-23T22:50:23.611Z,17.82
2022-10-23T22:55:26.229Z,17.82
2022-10-23T23:00:28.812Z,17.83
2022-10-23T23:05:32.871Z,17.82
2022-10-23T23:10:35.488Z,17.80
2022-10-23T23:15:40.702Z,17.80
2022-10-23T23:20:44.742Z,17.78
2022-10-23T23:25:49.331Z,17.75
2022-10-23T23:31:03.253Z,17.76
2022-10-23T23:36:10.031Z,17.75
2022-10-23T23:41:13.587Z,17.77
2022-10-23T23:46:16.681Z,17.77
2022-10-23T23:51:25.135Z,17.79
2022-10-23T23:56:28.005Z,17.80
